sensor_id;sensor_type;location;lat;lon;timestamp;pressure;altitude;pressure_sealevel;temperature;humidity
47670;BME280;33408;52.062;11.722;2023-05-10T00:00:47;100533.16;;;11.99;90.36
47670;BME280;33408;52.062;11.722;2023-05-10T00:03:14;100534.84;;;12.01;90.46
47670;BME280;33408;52.062;11.722;2023-05-10T00:05:41;100535.75;;;11.99;90.74
47670;BME280;33408;52.062;11.722;2023-05-10T00:08:07;100533.25;;;11.96;91.08
47670;BME280;33408;52.062;11.722;2023-05-10T00:10:34;100537.69;;;11.92;91.64
47670;BME280;33408;52.062;11.722;2023-05-10T00:13:01;100539.41;;;11.93;91.60
47670;BME280;33408;52.062;11.722;2023-05-10T00:15:29;100529.91;;;11.91;92.24
47670;BME280;33408;52.062;11.722;2023-05-10T00:17:56;100522.31;;;11.83;92.63
47670;BME280;33408;52.062;11.722;2023-05-10T00:20:23;100525.91;;;11.79;92.97
47670;BME280;33408;52.062;11.722;2023-05-10T00:22:50;100518.19;;;11.76;93.69
47670;BME280;33408;52.062;11.722;2023-05-10T00:25:16;100517.38;;;11.74;94.09
47670;BME280;33408;52.062;11.722;2023-05-10T00:27:43;100510.50;;;11.71;94.38
47670;BME280;33408;52.062;11.722;2023-05-10T00:30:10;100509.47;;;11.77;94.31
47670;BME280;33408;52.062;11.722;2023-05-10T00:32:38;100508.72;;;11.73;94.81
47670;BME280;33408;52.062;11.722;2023-05-10T00:35:05;100507.16;;;11.67;95.31
47670;BME280;33408;52.062;11.722;2023-05-10T00:37:31;100505.44;;;11.66;95.74
47670;BME280;33408;52.062;11.722;2023-05-10T00:39:58;100508.94;;;11.64;95.70
47670;BME280;33408;52.062;11.722;2023-05-10T00:42:25;100504.00;;;11.56;96.15
47670;BME280;33408;52.062;11.722;2023-05-10T00:44:51;100506.31;;;11.65;96.24
47670;BME280;33408;52.062;11.722;2023-05-10T00:47:18;100500.31;;;11.63;96.05
47670;BME280;33408;52.062;11.722;2023-05-10T00:49:46;100507.16;;;11.67;96.19
47670;BME280;33408;52.062;11.722;2023-05-10T00:52:13;100491.06;;;11.55;96.40
47670;BME280;33408;52.062;11.722;2023-05-10T00:54:39;100499.53;;;11.61;96.80
47670;BME280;33408;52.062;11.722;2023-05-10T00:57:06;100497.16;;;11.52;97.24
47670;BME280;33408;52.062;11.722;2023-05-10T00:59:33;100492.81;;;11.53;97.52
47670;BME280;33408;52.062;11.722;2023-05-10T01:02:00;100488.59;;;11.48;97.79
47670;BME280;33408;52.062;11.722;2023-05-10T01:04:27;100485.13;;;11.49;97.77
47670;BME280;33408;52.062;11.722;2023-05-10T01:06:55;100490.41;;;11.46;98.14
47670;BME280;33408;52.062;11.722;2023-05-10T01:09:22;100486.09;;;11.45;98.07
47670;BME280;33408;52.062;11.722;2023-05-10T01:11:51;100483.53;;;11.44;98.67
47670;BME280;33408;52.062;11.722;2023-05-10T01:14:19;100475.75;;;11.44;98.74
47670;BME280;33408;52.062;11.722;2023-05-10T01:16:47;100488.03;;;11.37;99.45
47670;BME280;33408;52.062;11.722;2023-05-10T01:19:18;100472.53;;;11.34;99.64
47670;BME280;33408;52.062;11.722;2023-05-10T01:21:53;100476.81;;;11.37;99.54
47670;BME280;33408;52.062;11.722;2023-05-10T01:27:47;100471.09;;;11.24;100.00
47670;BME280;33408;52.062;11.722;2023-05-10T01:30:35;100474.47;;;11.26;100.00
47670;BME280;33408;52.062;11.722;2023-05-10T01:33:15;100475.31;;;11.26;100.00
47670;BME280;33408;52.062;11.722;2023-05-10T01:35:49;100475.47;;;11.20;100.00
47670;BME280;33408;52.062;11.722;2023-05-10T01:38:21;100478.00;;;11.23;100.00
47670;BME280;33408;52.062;11.722;2023-05-10T01:40:57;100478.25;;;11.14;100.00
47670;BME280;33408;52.062;11.722;2023-05-10T01:43:31;100477.41;;;11.12;100.00
47670;BME280;33408;52.062;11.722;2023-05-10T01:46:01;100480.78;;;11.16;100.00
47670;BME280;33408;52.062;11.722;2023-05-10T01:48:37;100475.81;;;11.08;100.00
47670;BME280;33408;52.062;11.722;2023-05-10T01:51:09;100473.88;;;11.16;100.00
47670;BME280;33408;52.062;11.722;2023-05-10T01:53:37;100469.56;;;11.15;100.00
47670;BME280;33408;52.062;11.722;2023-05-10T01:56:05;100464.47;;;11.10;100.00
47670;BME280;33408;52.062;11.722;2023-05-10T01:58:34;100472.22;;;11.12;100.00
47670;BME280;33408;52.062;11.722;2023-05-10T02:01:04;100479.41;;;11.01;100.00
47670;BME280;33408;52.062;11.722;2023-05-10T02:03:32;100467.25;;;11.03;100.00
47670;BME280;33408;52.062;11.722;2023-05-10T02:06:03;100469.75;;;11.07;100.00
47670;BME280;33408;52.062;11.722;2023-05-10T02:08:31;100463.72;;;11.07;100.00
47670;BME280;33408;52.062;11.722;2023-05-10T02:10:59;100481.06;;;11.05;100.00
47670;BME280;33408;52.062;11.722;2023-05-10T02:13:27;100478.75;;;10.92;100.00
47670;BME280;33408;52.062;11.722;2023-05-10T02:15:54;100483.81;;;10.99;100.00
47670;BME280;33408;52.062;11.722;2023-05-10T02:18:22;100476.38;;;10.83;100.00
47670;BME280;33408;52.062;11.722;2023-05-10T02:20:51;100474.63;;;10.85;100.00
47670;BME280;33408;52.062;11.722;2023-05-10T02:23:22;100473.81;;;10.82;100.00
47670;BME280;33408;52.062;11.722;2023-05-10T02:25:51;100480.69;;;10.84;100.00
47670;BME280;33408;52.062;11.722;2023-05-10T02:28:21;100472.97;;;10.81;100.00
47670;BME280;33408;52.062;11.722;2023-05-10T02:30:48;100478.16;;;10.81;100.00
47670;BME280;33408;52.062;11.722;2023-05-10T02:33:15;100473.03;;;10.78;100.00
47670;BME280;33408;52.062;11.722;2023-05-10T02:35:42;100473.84;;;10.80;100.00
47670;BME280;33408;52.062;11.722;2023-05-10T02:38:10;100469.69;;;10.74;100.00
47670;BME280;33408;52.062;11.722;2023-05-10T02:40:40;100468.88;;;10.72;100.00
47670;BME280;33408;52.062;11.722;2023-05-10T02:43:09;100462.03;;;10.68;100.00
47670;BME280;33408;52.062;11.722;2023-05-10T02:45:39;100462.94;;;10.66;100.00
47670;BME280;33408;52.062;11.722;2023-05-10T02:48:06;100465.72;;;10.60;100.00
47670;BME280;33408;52.062;11.722;2023-05-10T02:50:33;100461.44;;;10.57;100.00
47670;BME280;33408;52.062;11.722;2023-05-10T02:53:06;100462.44;;;10.51;100.00
47670;BME280;33408;52.062;11.722;2023-05-10T02:55:40;100453.75;;;10.52;100.00
47670;BME280;33408;52.062;11.722;2023-05-10T02:58:07;100457.22;;;10.53;100.00
47670;BME280;33408;52.062;11.722;2023-05-10T03:00:34;100458.94;;;10.52;100.00
47670;BME280;33408;52.062;11.722;2023-05-10T03:03:01;100460.03;;;10.42;100.00
47670;BME280;33408;52.062;11.722;2023-05-10T03:05:28;100457.50;;;10.40;100.00
47670;BME280;33408;52.062;11.722;2023-05-10T03:07:54;100459.88;;;10.50;100.00
47670;BME280;33408;52.062;11.722;2023-05-10T03:10:24;100452.09;;;10.50;100.00
47670;BME280;33408;52.062;11.722;2023-05-10T03:13:06;100455.59;;;10.47;100.00
47670;BME280;33408;52.062;11.722;2023-05-10T03:15:40;100457.09;;;10.57;100.00
47670;BME280;33408;52.062;11.722;2023-05-10T03:18:13;100461.69;;;10.45;100.00
47670;BME280;33408;52.062;11.722;2023-05-10T03:20:42;100459.03;;;10.48;100.00
47670;BME280;33408;52.062;11.722;2023-05-10T03:23:13;100455.53;;;10.50;100.00
47670;BME280;33408;52.062;11.722;2023-05-10T03:25:44;100460.03;;;10.42;100.00
47670;BME280;33408;52.062;11.722;2023-05-10T03:28:14;100464.19;;;10.49;100.00
47670;BME280;33408;52.062;11.722;2023-05-10T03:30:43;100463.41;;;10.46;100.00
47670;BME280;33408;52.062;11.722;2023-05-10T03:33:09;100470.22;;;10.51;100.00
47670;BME280;33408;52.062;11.722;2023-05-10T03:35:37;100461.31;;;10.62;100.00
47670;BME280;33408;52.062;11.722;2023-05-10T03:38:04;100464.88;;;10.57;100.00
47670;BME280;33408;52.062;11.722;2023-05-10T03:40:31;100463.88;;;10.63;100.00
47670;BME280;33408;52.062;11.722;2023-05-10T03:42:58;100466.63;;;10.57;100.00
47670;BME280;33408;52.062;11.722;2023-05-10T03:45:26;100461.50;;;10.54;100.00
47670;BME280;33408;52.062;11.722;2023-05-10T03:47:53;100464.66;;;10.67;100.00
47670;BME280;33408;52.062;11.722;2023-05-10T03:50:20;100465.50;;;10.67;100.00
47670;BME280;33408;52.062;11.722;2023-05-10T03:52:46;100464.38;;;10.79;100.00
47670;BME280;33408;52.062;11.722;2023-05-10T03:55:13;100462.75;;;10.75;100.00
47670;BME280;33408;52.062;11.722;2023-05-10T03:57:40;100470.28;;;11.55;100.00
47670;BME280;33408;52.062;11.722;2023-05-10T04:00:07;100467.88;;;12.11;100.00
47670;BME280;33408;52.062;11.722;2023-05-10T04:02:36;100459.91;;;12.17;100.00
47670;BME280;33408;52.062;11.722;2023-05-10T04:05:03;100459.22;;;11.79;100.00
47670;BME280;33408;52.062;11.722;2023-05-10T04:07:29;100461.63;;;11.54;100.00
47670;BME280;33408;52.062;11.722;2023-05-10T04:09:56;100455.28;;;11.31;100.00
47670;BME280;33408;52.062;11.722;2023-05-10T04:12:22;100456.34;;;11.57;100.00
47670;BME280;33408;52.062;11.722;2023-05-10T04:14:49;100458.81;;;12.25;100.00
47670;BME280;33408;52.062;11.722;2023-05-10T04:17:16;100453.03;;;13.25;96.20
47670;BME280;33408;52.062;11.722;2023-05-10T04:19:44;100453.78;;;13.79;90.97
47670;BME280;33408;52.062;11.722;2023-05-10T04:22:10;100452.47;;;14.14;85.99
47670;BME280;33408;52.062;11.722;2023-05-10T04:24:37;100452.22;;;14.44;83.22
47670;BME280;33408;52.062;11.722;2023-05-10T04:27:04;100442.22;;;15.20;79.41
47670;BME280;33408;52.062;11.722;2023-05-10T04:29:30;100442.41;;;15.16;76.25
47670;BME280;33408;52.062;11.722;2023-05-10T04:31:57;100451.34;;;15.51;73.63
47670;BME280;33408;52.062;11.722;2023-05-10T04:34:23;100445.66;;;16.39;70.16
47670;BME280;33408;52.062;11.722;2023-05-10T04:36:52;100445.34;;;15.08;71.77
47670;BME280;33408;52.062;11.722;2023-05-10T04:39:18;100449.91;;;15.44;72.23
47670;BME280;33408;52.062;11.722;2023-05-10T04:41:45;100448.59;;;15.13;73.92
47670;BME280;33408;52.062;11.722;2023-05-10T04:44:11;100442.59;;;15.92;72.06
47670;BME280;33408;52.062;11.722;2023-05-10T04:46:38;100446.56;;;16.19;70.33
47670;BME280;33408;52.062;11.722;2023-05-10T04:49:05;100449.06;;;16.03;69.19
47670;BME280;33408;52.062;11.722;2023-05-10T04:51:31;100442.66;;;15.50;70.33
47670;BME280;33408;52.062;11.722;2023-05-10T04:53:59;100448.41;;;15.38;72.00
47670;BME280;33408;52.062;11.722;2023-05-10T04:56:26;100451.09;;;15.57;71.22
47670;BME280;33408;52.062;11.722;2023-05-10T04:58:53;100448.34;;;16.19;69.25
47670;BME280;33408;52.062;11.722;2023-05-10T05:01:19;100445.72;;;16.74;66.62
47670;BME280;33408;52.062;11.722;2023-05-10T05:03:46;100452.44;;;16.25;67.51
47670;BME280;33408;52.062;11.722;2023-05-10T05:06:12;100446.72;;;14.74;72.30
47670;BME280;33408;52.062;11.722;2023-05-10T05:08:39;100455.88;;;14.84;74.96
47670;BME280;33408;52.062;11.722;2023-05-10T05:11:07;100456.03;;;14.81;75.33
47670;BME280;33408;52.062;11.722;2023-05-10T05:13:33;100463.09;;;16.01;71.07
47670;BME280;33408;52.062;11.722;2023-05-10T05:16:00;100460.38;;;16.23;70.00
47670;BME280;33408;52.062;11.722;2023-05-10T05:18:27;100458.66;;;16.22;68.10
47670;BME280;33408;52.062;11.722;2023-05-10T05:20:54;100448.81;;;16.27;67.58
47670;BME280;33408;52.062;11.722;2023-05-10T05:23:21;100445.47;;;16.79;67.08
47670;BME280;33408;52.062;11.722;2023-05-10T05:25:51;100451.00;;;17.09;64.70
47670;BME280;33408;52.062;11.722;2023-05-10T05:28:19;100458.53;;;17.50;63.24
47670;BME280;33408;52.062;11.722;2023-05-10T05:30:46;100446.56;;;17.11;62.87
47670;BME280;33408;52.062;11.722;2023-05-10T05:33:13;100456.09;;;17.81;61.56
47670;BME280;33408;52.062;11.722;2023-05-10T05:35:40;100453.22;;;16.27;63.98
47670;BME280;33408;52.062;11.722;2023-05-10T05:38:08;100457.63;;;16.44;67.11
47670;BME280;33408;52.062;11.722;2023-05-10T05:40:34;100458.88;;;16.36;67.77
47670;BME280;33408;52.062;11.722;2023-05-10T05:43:01;100456.69;;;15.89;71.70
47670;BME280;33408;52.062;11.722;2023-05-10T05:45:29;100456.47;;;16.32;70.57
47670;BME280;33408;52.062;11.722;2023-05-10T05:47:55;100458.88;;;16.36;70.34
47670;BME280;33408;52.062;11.722;2023-05-10T05:50:22;100453.09;;;16.11;71.33
47670;BME280;33408;52.062;11.722;2023-05-10T05:52:48;100452.84;;;16.71;68.99
47670;BME280;33408;52.062;11.722;2023-05-10T05:55:15;100457.53;;;16.09;69.84
47670;BME280;33408;52.062;11.722;2023-05-10T05:57:42;100454.78;;;16.67;68.36
47670;BME280;33408;52.062;11.722;2023-05-10T06:00:09;100451.56;;;16.43;68.76
47670;BME280;33408;52.062;11.722;2023-05-10T06:02:37;100454.72;;;15.94;70.81
47670;BME280;33408;52.062;11.722;2023-05-10T06:05:04;100458.00;;;15.79;73.60
47670;BME280;33408;52.062;11.722;2023-05-10T06:07:31;100463.06;;;15.42;75.96
47670;BME280;33408;52.062;11.722;2023-05-10T06:09:57;100462.97;;;15.44;77.42
47670;BME280;33408;52.062;11.722;2023-05-10T06:12:24;100459.22;;;15.08;79.94
47670;BME280;33408;52.062;11.722;2023-05-10T06:14:50;100466.53;;;15.00;81.67
47670;BME280;33408;52.062;11.722;2023-05-10T06:17:17;100463.41;;;15.12;83.55
47670;BME280;33408;52.062;11.722;2023-05-10T06:19:45;100469.84;;;14.61;84.01
47670;BME280;33408;52.062;11.722;2023-05-10T06:22:12;100465.34;;;14.65;85.26
47670;BME280;33408;52.062;11.722;2023-05-10T06:24:38;100472.59;;;14.56;85.10
47670;BME280;33408;52.062;11.722;2023-05-10T06:27:06;100469.38;;;14.73;85.79
47670;BME280;33408;52.062;11.722;2023-05-10T06:29:32;100472.56;;;14.80;86.13
47670;BME280;33408;52.062;11.722;2023-05-10T06:31:59;100470.16;;;14.52;87.26
47670;BME280;33408;52.062;11.722;2023-05-10T06:34:25;100474.16;;;14.62;87.79
47670;BME280;33408;52.062;11.722;2023-05-10T06:36:53;100466.16;;;15.09;87.98
47670;BME280;33408;52.062;11.722;2023-05-10T06:39:20;100471.09;;;15.38;85.67
47670;BME280;33408;52.062;11.722;2023-05-10T06:41:46;100473.59;;;15.60;84.75
47670;BME280;33408;52.062;11.722;2023-05-10T06:44:13;100473.53;;;15.61;84.62
47670;BME280;33408;52.062;11.722;2023-05-10T06:46:40;100473.88;;;15.12;86.14
47670;BME280;33408;52.062;11.722;2023-05-10T06:49:06;100476.84;;;15.85;85.01
47670;BME280;33408;52.062;11.722;2023-05-10T06:51:33;100477.97;;;16.00;83.51
47670;BME280;33408;52.062;11.722;2023-05-10T06:54:01;100478.38;;;16.10;82.49
47670;BME280;33408;52.062;11.722;2023-05-10T06:56:28;100471.72;;;16.41;81.45
47670;BME280;33408;52.062;11.722;2023-05-10T06:58:55;100466.56;;;16.01;80.10
47670;BME280;33408;52.062;11.722;2023-05-10T07:01:22;100477.66;;;16.26;81.79
47670;BME280;33408;52.062;11.722;2023-05-10T07:03:48;100475.09;;;16.62;80.38
47670;BME280;33408;52.062;11.722;2023-05-10T07:06:15;100474.34;;;16.22;80.90
47670;BME280;33408;52.062;11.722;2023-05-10T07:08:42;100477.50;;;16.67;80.72
47670;BME280;33408;52.062;11.722;2023-05-10T07:11:10;100481.16;;;16.63;80.41
47670;BME280;33408;52.062;11.722;2023-05-10T07:13:37;100474.03;;;17.20;78.39
47670;BME280;33408;52.062;11.722;2023-05-10T07:16:06;100481.03;;;18.06;75.57
47670;BME280;33408;52.062;11.722;2023-05-10T07:18:33;100476.53;;;18.08;74.65
47670;BME280;33408;52.062;11.722;2023-05-10T07:21:00;100466.03;;;18.08;72.86
47670;BME280;33408;52.062;11.722;2023-05-10T07:23:26;100465.78;;;17.79;70.53
47670;BME280;33408;52.062;11.722;2023-05-10T07:25:53;100476.66;;;17.89;74.77
47670;BME280;33408;52.062;11.722;2023-05-10T07:28:21;100471.69;;;18.00;72.46
47670;BME280;33408;52.062;11.722;2023-05-10T07:30:48;100474.06;;;18.04;72.89
47670;BME280;33408;52.062;11.722;2023-05-10T07:33:14;100471.66;;;17.84;73.05
47670;BME280;33408;52.062;11.722;2023-05-10T07:35:41;100475.03;;;18.03;71.46
47670;BME280;33408;52.062;11.722;2023-05-10T07:38:08;100482.19;;;17.66;71.16
47670;BME280;33408;52.062;11.722;2023-05-10T07:40:36;100479.41;;;18.03;70.94
47670;BME280;33408;52.062;11.722;2023-05-10T07:43:03;100478.31;;;17.56;72.18
47670;BME280;33408;52.062;11.722;2023-05-10T07:45:31;100485.25;;;17.92;72.80
47670;BME280;33408;52.062;11.722;2023-05-10T07:47:57;100486.13;;;18.40;73.39
47670;BME280;33408;52.062;11.722;2023-05-10T07:50:24;100487.97;;;18.07;70.79
47670;BME280;33408;52.062;11.722;2023-05-10T07:52:51;100489.03;;;17.69;73.55
47670;BME280;33408;52.062;11.722;2023-05-10T07:55:19;100481.78;;;17.74;73.17
47670;BME280;33408;52.062;11.722;2023-05-10T07:57:46;100490.66;;;17.72;74.76
47670;BME280;33408;52.062;11.722;2023-05-10T08:00:17;100492.06;;;17.95;74.95
47670;BME280;33408;52.062;11.722;2023-05-10T08:02:45;100497.38;;;17.60;75.57
47670;BME280;33408;52.062;11.722;2023-05-10T08:05:12;100489.19;;;17.66;76.18
47670;BME280;33408;52.062;11.722;2023-05-10T08:07:39;100497.31;;;17.77;77.43
47670;BME280;33408;52.062;11.722;2023-05-10T08:10:08;100502.69;;;17.58;78.26
47670;BME280;33408;52.062;11.722;2023-05-10T08:12:34;100501.09;;;17.38;79.00
47670;BME280;33408;52.062;11.722;2023-05-10T08:15:01;100501.78;;;17.24;80.09
47670;BME280;33408;52.062;11.722;2023-05-10T08:17:28;100501.22;;;17.18;79.55
47670;BME280;33408;52.062;11.722;2023-05-10T08:19:56;100514.06;;;16.87;82.14
47670;BME280;33408;52.062;11.722;2023-05-10T08:22:23;100517.09;;;16.78;84.89
47670;BME280;33408;52.062;11.722;2023-05-10T08:24:49;100520.28;;;17.21;84.69
47670;BME280;33408;52.062;11.722;2023-05-10T08:27:16;100523.03;;;16.63;86.37
47670;BME280;33408;52.062;11.722;2023-05-10T08:29:42;100530.25;;;16.76;86.15
47670;BME280;33408;52.062;11.722;2023-05-10T08:32:09;100533.66;;;16.59;86.33
47670;BME280;33408;52.062;11.722;2023-05-10T08:34:36;100531.63;;;16.47;87.57
47670;BME280;33408;52.062;11.722;2023-05-10T08:37:03;100539.16;;;16.72;89.13
47670;BME280;33408;52.062;11.722;2023-05-10T08:39:34;100545.97;;;16.57;89.13
47670;BME280;33408;52.062;11.722;2023-05-10T08:42:02;100536.56;;;16.34;89.43
47670;BME280;33408;52.062;11.722;2023-05-10T08:44:30;100537.69;;;16.48;92.00
47670;BME280;33408;52.062;11.722;2023-05-10T08:46:59;100538.19;;;16.37;91.65
47670;BME280;33408;52.062;11.722;2023-05-10T08:49:31;100541.72;;;16.55;92.40
47670;BME280;33408;52.062;11.722;2023-05-10T08:52:00;100547.41;;;16.65;91.10
47670;BME280;33408;52.062;11.722;2023-05-10T08:54:29;100546.94;;;16.55;90.64
47670;BME280;33408;52.062;11.722;2023-05-10T08:56:57;100550.84;;;16.65;91.44
47670;BME280;33408;52.062;11.722;2023-05-10T08:59:24;100551.28;;;16.94;90.96
47670;BME280;33408;52.062;11.722;2023-05-10T09:01:51;100562.84;;;16.69;92.22
47670;BME280;33408;52.062;11.722;2023-05-10T09:04:19;100562.16;;;16.66;93.76
47670;BME280;33408;52.062;11.722;2023-05-10T09:06:46;100566.63;;;16.64;96.32
47670;BME280;33408;52.062;11.722;2023-05-10T09:09:12;100574.00;;;16.74;97.39
47670;BME280;33408;52.062;11.722;2023-05-10T09:11:41;100571.28;;;16.95;96.06
47670;BME280;33408;52.062;11.722;2023-05-10T09:14:08;100574.28;;;16.87;97.17
47670;BME280;33408;52.062;11.722;2023-05-10T09:16:34;100578.22;;;16.77;96.30
47670;BME280;33408;52.062;11.722;2023-05-10T09:19:01;100582.34;;;17.02;94.79
47670;BME280;33408;52.062;11.722;2023-05-10T09:21:27;100586.38;;;16.90;96.16
47670;BME280;33408;52.062;11.722;2023-05-10T09:23:55;100585.69;;;16.86;95.93
47670;BME280;33408;52.062;11.722;2023-05-10T09:26:22;100589.94;;;16.89;96.53
47670;BME280;33408;52.062;11.722;2023-05-10T09:28:54;100591.50;;;16.53;97.75
47670;BME280;33408;52.062;11.722;2023-05-10T09:31:21;100585.72;;;16.66;100.00
47670;BME280;33408;52.062;11.722;2023-05-10T09:33:49;100588.69;;;16.58;100.00
47670;BME280;33408;52.062;11.722;2023-05-10T09:36:16;100599.81;;;16.63;100.00
47670;BME280;33408;52.062;11.722;2023-05-10T09:38:47;100599.00;;;16.61;100.00
47670;BME280;33408;52.062;11.722;2023-05-10T09:41:18;100598.00;;;16.45;100.00
47670;BME280;33408;52.062;11.722;2023-05-10T09:43:45;100603.59;;;16.37;100.00
47670;BME280;33408;52.062;11.722;2023-05-10T09:46:14;100600.47;;;16.29;100.00
47670;BME280;33408;52.062;11.722;2023-05-10T09:48:42;100610.47;;;16.19;100.00
47670;BME280;33408;52.062;11.722;2023-05-10T09:51:09;100613.59;;;16.27;100.00
47670;BME280;33408;52.062;11.722;2023-05-10T09:53:36;100607.53;;;16.27;100.00
47670;BME280;33408;52.062;11.722;2023-05-10T09:56:03;100612.19;;;16.20;100.00
47670;BME280;33408;52.062;11.722;2023-05-10T09:58:29;100625.03;;;16.45;100.00
47670;BME280;33408;52.062;11.722;2023-05-10T10:00:56;100625.22;;;16.21;100.00
47670;BME280;33408;52.062;11.722;2023-05-10T10:03:24;100621.78;;;16.19;100.00
47670;BME280;33408;52.062;11.722;2023-05-10T10:05:51;100631.06;;;16.47;100.00
47670;BME280;33408;52.062;11.722;2023-05-10T10:08:18;100626.44;;;16.33;100.00
47670;BME280;33408;52.062;11.722;2023-05-10T10:10:46;100630.41;;;16.61;100.00
47670;BME280;33408;52.062;11.722;2023-05-10T10:13:13;100632.13;;;16.62;100.00
47670;BME280;33408;52.062;11.722;2023-05-10T10:15:41;100638.69;;;16.71;100.00
47670;BME280;33408;52.062;11.722;2023-05-10T10:18:12;100631.41;;;16.58;100.00
47670;BME280;33408;52.062;11.722;2023-05-10T10:20:40;100630.72;;;17.12;100.00
47670;BME280;33408;52.062;11.722;2023-05-10T10:23:08;100633.19;;;16.77;100.00
47670;BME280;33408;52.062;11.722;2023-05-10T10:25:35;100640.38;;;16.92;100.00
47670;BME280;33408;52.062;11.722;2023-05-10T10:28:14;100643.13;;;17.08;100.00
47670;BME280;33408;52.062;11.722;2023-05-10T10:30:45;100638.94;;;16.85;100.00
47670;BME280;33408;52.062;11.722;2023-05-10T10:33:39;100646.41;;;16.74;100.00
47670;BME280;33408;52.062;11.722;2023-05-10T10:36:08;100644.97;;;16.48;100.00
47670;BME280;33408;52.062;11.722;2023-05-10T10:38:54;100656.53;;;16.02;100.00
47670;BME280;33408;52.062;11.722;2023-05-10T10:41:32;100652.78;;;16.08;100.00
47670;BME280;33408;52.062;11.722;2023-05-10T10:44:24;100649.78;;;16.17;100.00
47670;BME280;33408;52.062;11.722;2023-05-10T10:47:01;100660.03;;;15.81;100.00
47670;BME280;33408;52.062;11.722;2023-05-10T10:49:31;100664.03;;;15.90;100.00
47670;BME280;33408;52.062;11.722;2023-05-10T10:52:25;100659.59;;;16.12;100.00
47670;BME280;33408;52.062;11.722;2023-05-10T10:54:59;100656.91;;;15.93;100.00
47670;BME280;33408;52.062;11.722;2023-05-10T10:57:27;100659.97;;;16.03;100.00
47670;BME280;33408;52.062;11.722;2023-05-10T11:00:23;100670.00;;;16.14;100.00
47670;BME280;33408;52.062;11.722;2023-05-10T11:02:51;100666.34;;;15.75;100.00
47670;BME280;33408;52.062;11.722;2023-05-10T11:05:42;100682.44;;;15.64;100.00
47670;BME280;33408;52.062;11.722;2023-05-10T11:08:13;100677.94;;;15.90;100.00
47670;BME280;33408;52.062;11.722;2023-05-10T11:10:49;100677.69;;;15.96;100.00
47670;BME280;33408;52.062;11.722;2023-05-10T11:13:27;100679.41;;;15.97;100.00
47670;BME280;33408;52.062;11.722;2023-05-10T11:15:54;100678.53;;;15.76;100.00
47670;BME280;33408;52.062;11.722;2023-05-10T11:18:24;100685.47;;;15.76;100.00
47670;BME280;33408;52.062;11.722;2023-05-10T11:20:52;100688.34;;;15.92;100.00
47670;BME280;33408;52.062;11.722;2023-05-10T11:23:20;100692.59;;;15.94;100.00
47670;BME280;33408;52.062;11.722;2023-05-10T11:25:47;100692.22;;;16.03;100.00
47670;BME280;33408;52.062;11.722;2023-05-10T11:28:16;100696.78;;;16.19;100.00
47670;BME280;33408;52.062;11.722;2023-05-10T11:30:44;100697.22;;;16.08;100.00
47670;BME280;33408;52.062;11.722;2023-05-10T11:33:15;100700.53;;;16.13;100.00
47670;BME280;33408;52.062;11.722;2023-05-10T11:35:42;100701.66;;;15.85;100.00
47670;BME280;33408;52.062;11.722;2023-05-10T11:38:10;100706.34;;;15.77;100.00
47670;BME280;33408;52.062;11.722;2023-05-10T11:40:38;100705.84;;;15.90;100.00
47670;BME280;33408;52.062;11.722;2023-05-10T11:43:06;100708.50;;;15.66;100.00
47670;BME280;33408;52.062;11.722;2023-05-10T11:45:33;100711.84;;;15.69;100.00
47670;BME280;33408;52.062;11.722;2023-05-10T11:48:00;100710.16;;;15.68;100.00
47670;BME280;33408;52.062;11.722;2023-05-10T11:50:27;100722.34;;;15.68;100.00
47670;BME280;33408;52.062;11.722;2023-05-10T11:52:55;100720.00;;;16.06;100.00
47670;BME280;33408;52.062;11.722;2023-05-10T11:55:22;100722.31;;;16.34;100.00
47670;BME280;33408;52.062;11.722;2023-05-10T11:57:53;100722.69;;;16.25;100.00
47670;BME280;33408;52.062;11.722;2023-05-10T12:00:20;100719.44;;;16.40;100.00
47670;BME280;33408;52.062;11.722;2023-05-10T12:02:47;100723.34;;;16.51;100.00
47670;BME280;33408;52.062;11.722;2023-05-10T12:05:14;100731.78;;;16.57;100.00
47670;BME280;33408;52.062;11.722;2023-05-10T12:07:41;100727.44;;;16.77;100.00
47670;BME280;33408;52.062;11.722;2023-05-10T12:10:09;100729.06;;;16.80;100.00
47670;BME280;33408;52.062;11.722;2023-05-10T12:12:38;100722.13;;;16.78;100.00
47670;BME280;33408;52.062;11.722;2023-05-10T12:15:10;100729.53;;;16.69;100.00
47670;BME280;33408;52.062;11.722;2023-05-10T12:17:37;100725.84;;;16.54;100.00
47670;BME280;33408;52.062;11.722;2023-05-10T12:20:14;100739.34;;;16.84;100.00
47670;BME280;33408;52.062;11.722;2023-05-10T12:22:44;100739.09;;;17.09;100.00
47670;BME280;33408;52.062;11.722;2023-05-10T12:25:11;100737.13;;;17.34;100.00
47670;BME280;33408;52.062;11.722;2023-05-10T12:27:37;100735.28;;;17.36;100.00
47670;BME280;33408;52.062;11.722;2023-05-10T12:30:07;100739.88;;;17.30;100.00
47670;BME280;33408;52.062;11.722;2023-05-10T12:32:40;100742.75;;;17.26;100.00
47670;BME280;33408;52.062;11.722;2023-05-10T12:35:08;100749.78;;;17.24;100.00
47670;BME280;33408;52.062;11.722;2023-05-10T12:37:35;100749.72;;;17.44;100.00
47670;BME280;33408;52.062;11.722;2023-05-10T12:40:06;100745.81;;;17.53;100.00
47670;BME280;33408;52.062;11.722;2023-05-10T12:42:34;100752.19;;;17.66;100.00
47670;BME280;33408;52.062;11.722;2023-05-10T12:45:01;100744.69;;;17.59;100.00